createdAt,value
2023-03-17T00:00:53.612Z,65.80
2023-03-17T00:01:53.660Z,65.38
2023-03-17T00:02:53.737Z,66.94
2023-03-17T00:03:53.589Z,66.53
2023-03-17T00:04:53.576Z,66.24
2023-03-17T00:05:53.544Z,67.15
2023-03-17T00:06:53.618Z,66.45
2023-03-17T00:07:53.538Z,65.41
2023-03-17T00:08:53.508Z,65.90
2023-03-17T00:09:53.516Z,66.63
2023-03-17T00:10:53.484Z,66.97
2023-03-17T00:11:53.496Z,66.66
2023-03-17T00:12:53.472Z,65.38
2023-03-17T00:13:53.455Z,66.24
2023-03-17T00:14:53.460Z,66.00
2023-03-17T00:15:53.551Z,66.56
2023-03-17T00:16:53.416Z,66.87
2023-03-17T00:17:53.398Z,66.35
2023-03-17T00:18:53.451Z,66.56
2023-03-17T00:19:53.417Z,67.29
2023-03-17T00:20:53.373Z,66.97
2023-03-17T00:21:53.354Z,66.87
2023-03-17T00:22:53.372Z,66.97
2023-03-17T00:23:53.333Z,67.49
2023-03-17T00:24:53.330Z,66.56
2023-03-17T00:25:53.317Z,66.14
2023-03-17T00:26:53.369Z,65.83
2023-03-17T00:27:53.299Z,66.14
2023-03-17T00:28:53.341Z,66.97
2023-03-17T00:29:53.283Z,67.29
2023-03-17T00:30:53.299Z,66.56
2023-03-17T00:31:53.275Z,66.87
2023-03-17T00:32:53.343Z,66.35
2023-03-17T00:33:53.235Z,66.97
2023-03-17T00:34:53.229Z,65.72
2023-03-17T00:35:53.246Z,65.62
2023-03-17T00:36:53.192Z,65.83
2023-03-17T00:37:53.187Z,65.72
2023-03-17T00:38:53.172Z,65.62
2023-03-17T00:39:53.188Z,66.03
2023-03-17T00:40:53.168Z,65.62
2023-03-17T00:41:53.149Z,66.24
2023-03-17T00:42:53.123Z,65.96
2023-03-17T00:43:53.120Z,65.83
2023-03-17T00:44:53.132Z,66.14
2023-03-17T00:45:53.106Z,65.41
2023-03-17T00:46:53.181Z,67.11
2023-03-17T00:47:53.081Z,65.72
2023-03-17T00:48:53.054Z,66.56
2023-03-17T00:49:53.072Z,66.45
2023-03-17T00:50:53.040Z,66.17
2023-03-17T00:51:53.045Z,67.11
2023-03-17T00:52:53.023Z,66.27
2023-03-17T00:53:52.991Z,67.00
2023-03-17T00:54:53.007Z,65.34
2023-03-17T00:55:53.007Z,66.80
2023-03-17T00:56:52.971Z,66.69
2023-03-17T00:57:52.969Z,66.17
2023-03-17T00:58:52.953Z,65.55
2023-03-17T00:59:52.926Z,66.27
2023-03-17T01:00:53.025Z,66.69
2023-03-17T01:01:53.054Z,66.59
2023-03-17T01:02:52.901Z,66.48
2023-03-17T01:03:52.943Z,66.27
2023-03-17T01:05:05.481Z,66.38
2023-03-17T01:05:53.858Z,65.34
2023-03-17T01:06:52.856Z,64.61
2023-03-17T01:07:52.905Z,64.79
2023-03-17T01:08:52.831Z,64.06
2023-03-17T01:09:52.836Z,64.48
2023-03-17T01:10:52.850Z,64.40
2023-03-17T01:11:52.816Z,65.55
2023-03-17T01:12:52.788Z,65.13
2023-03-17T01:13:52.802Z,65.65
2023-03-17T01:14:52.775Z,65.75
2023-03-17T01:15:52.854Z,64.82
2023-03-17T01:16:52.760Z,64.09
2023-03-17T01:17:52.723Z,64.17
2023-03-17T01:18:52.749Z,64.92
2023-03-17T01:19:52.725Z,64.92
2023-03-17T01:20:52.698Z,65.75
2023-03-17T01:21:52.718Z,65.65
2023-03-17T01:22:52.691Z,65.65
2023-03-17T01:23:52.657Z,66.30
2023-03-17T01:24:52.654Z,67.32
2023-03-17T01:25:52.642Z,66.38
2023-03-17T01:26:52.649Z,65.99
2023-03-17T01:27:52.613Z,65.78
2023-03-17T01:28:52.636Z,65.37
2023-03-17T01:29:52.591Z,65.78
2023-03-17T01:30:52.587Z,65.58
2023-03-17T01:31:52.645Z,66.27
2023-03-17T01:32:52.577Z,66.30
2023-03-17T01:33:52.565Z,66.62
2023-03-17T01:34:52.541Z,67.14
2023-03-17T01:35:52.614Z,66.44
2023-03-17T01:36:52.539Z,67.24
2023-03-17T01:37:52.518Z,67.07
2023-03-17T01:38:52.506Z,66.75
2023-03-17T01:39:52.476Z,66.33
2023-03-17T01:40:52.473Z,66.75
2023-03-17T01:41:52.474Z,66.33
2023-03-17T01:42:52.449Z,65.68
2023-03-17T01:43:52.440Z,66.30
2023-03-17T01:44:52.442Z,65.78
2023-03-17T01:45:52.455Z,66.41
2023-03-17T01:46:52.430Z,66.72
2023-03-17T01:47:52.390Z,66.51
2023-03-17T01:48:52.386Z,67.03
2023-03-17T01:49:52.379Z,68.38
2023-03-17T01:51:00.083Z,68.42
2023-03-17T01:51:52.364Z,68.21
2023-03-17T01:53:00.127Z,68.10
2023-03-17T01:53:59.507Z,68.10
2023-03-17T01:55:00.013Z,67.48
2023-03-17T01:55:59.973Z,67.27
2023-03-17T01:56:59.972Z,66.96
2023-03-17T01:58:01.273Z,67.07
2023-03-17T01:58:52.317Z,67.24
2023-03-17T01:59:59.932Z,68.52
2023-03-17T02:00:52.296Z,67.55
2023-03-17T02:01:52.232Z,67.27
2023-03-17T02:02:52.243Z,67.76
2023-03-17T02:03:52.305Z,68.00
2023-03-17T02:04:52.365Z,68.10
2023-03-17T02:05:52.203Z,68.00
2023-03-17T02:06:58.364Z,68.32
2023-03-17T02:07:53.175Z,67.38
2023-03-17T02:08:52.184Z,67.69
2023-03-17T02:09:52.167Z,68.10
2023-03-17T02:10:52.151Z,66.75
2023-03-17T02:11:52.129Z,67.03
2023-03-17T02:12:52.144Z,67.17
2023-03-17T02:13:52.108Z,67.45
2023-03-17T02:14:52.090Z,67.86
2023-03-17T02:15:52.112Z,66.75
2023-03-17T02:16:52.107Z,66.72
2023-03-17T02:17:52.089Z,66.96
2023-03-17T02:18:52.053Z,67.07
2023-03-17T02:19:52.039Z,67.90
2023-03-17T02:20:52.022Z,67.24
2023-03-17T02:21:52.084Z,67.38
2023-03-17T02:22:52.027Z,67.66
2023-03-17T02:23:51.997Z,68.73
2023-03-17T02:24:51.985Z,68.94
2023-03-17T02:25:51.990Z,68.32
2023-03-17T02:26:51.957Z,68.42
2023-03-17T02:27:51.978Z,68.63
2023-03-17T02:28:51.940Z,68.21
2023-03-17T02:29:51.929Z,68.32
2023-03-17T02:30:51.974Z,67.90
2023-03-17T02:31:51.914Z,67.27
2023-03-17T02:32:51.949Z,68.10
2023-03-17T02:33:51.920Z,68.21
2023-03-17T02:34:51.876Z,68.21
2023-03-17T02:35:51.916Z,66.96
2023-03-17T02:36:51.868Z,67.79
2023-03-17T02:37:51.841Z,68.52
2023-03-17T02:38:51.861Z,68.94
2023-03-17T02:39:51.836Z,66.86
2023-03-17T02:40:51.826Z,67.14
2023-03-17T02:41:51.800Z,66.75
2023-03-17T02:42:51.804Z,67.69
2023-03-17T02:43:51.793Z,67.03
2023-03-17T02:44:51.770Z,67.03
2023-03-17T02:45:51.816Z,66.83
2023-03-17T02:46:51.737Z,66.96
2023-03-17T02:47:51.771Z,67.03
2023-03-17T02:48:51.736Z,67.07
2023-03-17T02:49:51.718Z,67.03
2023-03-17T02:50:51.705Z,67.03
2023-03-17T02:51:51.705Z,67.45
2023-03-17T02:52:51.689Z,66.41
2023-03-17T02:53:51.664Z,67.27
2023-03-17T02:54:51.677Z,66.86
2023-03-17T02:55:51.646Z,66.86
2023-03-17T02:56:51.651Z,66.23
2023-03-17T02:57:51.658Z,66.75
2023-03-17T02:58:51.621Z,66.13
2023-03-17T02:59:51.623Z,66.54
2023-03-17T03:00:51.591Z,66.30
2023-03-17T03:01:51.607Z,67.14
2023-03-17T03:02:51.645Z,67.03
2023-03-17T03:03:51.565Z,66.96
2023-03-17T03:04:51.540Z,66.54
2023-03-17T03:05:51.529Z,67.17
2023-03-17T03:06:51.547Z,66.96
2023-03-17T03:07:51.508Z,65.47
2023-03-17T03:08:51.491Z,66.41
2023-03-17T03:09:51.517Z,66.62
2023-03-17T03:10:51.497Z,65.99
2023-03-17T03:11:51.483Z,65.89
2023-03-17T03:12:51.452Z,66.72
2023-03-17T03:13:51.463Z,67.14
2023-03-17T03:14:51.425Z,66.44
2023-03-17T03:15:51.447Z,67.27
2023-03-17T03:16:51.408Z,67.48
2023-03-17T03:17:51.396Z,67.07
2023-03-17T03:18:51.416Z,67.07
2023-03-17T03:19:51.382Z,67.58
2023-03-17T03:20:51.372Z,67.17
2023-03-17T03:21:51.392Z,67.07
2023-03-17T03:22:51.360Z,67.07
2023-03-17T03:23:51.348Z,65.61
2023-03-17T03:24:51.339Z,65.50
2023-03-17T03:25:51.313Z,67.07
2023-03-17T03:26:51.318Z,67.38
2023-03-17T03:27:51.304Z,65.81
2023-03-17T03:28:51.298Z,66.44
2023-03-17T03:29:51.280Z,65.71
2023-03-17T03:30:51.336Z,66.13
2023-03-17T03:31:51.240Z,65.81
2023-03-17T03:32:51.336Z,66.44
2023-03-17T03:33:51.245Z,66.75
2023-03-17T03:34:51.210Z,66.75
2023-03-17T03:35:51.261Z,66.65
2023-03-17T03:36:51.185Z,66.33
2023-03-17T03:37:51.195Z,66.33
2023-03-17T03:38:51.179Z,66.23
2023-03-17T03:39:51.161Z,66.68
2023-03-17T03:40:51.140Z,65.64
2023-03-17T03:41:51.148Z,66.54
2023-03-17T03:42:51.159Z,66.89
2023-03-17T03:43:51.148Z,67.82
2023-03-17T03:44:51.098Z,68.35
2023-03-17T03:45:51.098Z,67.82
2023-03-17T03:46:51.108Z,68.76
2023-03-17T03:47:51.087Z,68.87
2023-03-17T03:48:51.082Z,67.30
2023-03-17T03:49:51.068Z,67.93
2023-03-17T03:50:51.024Z,68.87
2023-03-17T03:51:51.022Z,68.87
2023-03-17T03:52:50.996Z,68.24
2023-03-17T03:53:51.000Z,68.90
2023-03-17T03:54:50.995Z,67.93
2023-03-17T03:55:50.986Z,69.42
2023-03-17T03:56:50.953Z,68.90
2023-03-17T03:57:50.969Z,70.15
2023-03-17T03:58:50.954Z,67.85
2023-03-17T03:59:50.926Z,67.85
2023-03-17T04:00:50.946Z,68.90
2023-03-17T04:01:50.921Z,68.79
2023-03-17T04:02:50.916Z,68.90
2023-03-17T04:03:50.880Z,68.69
2023-03-17T04:04:50.944Z,67.85
2023-03-17T04:05:50.884Z,67.85
2023-03-17T04:06:50.860Z,67.54
2023-03-17T04:07:50.850Z,68.69
2023-03-17T04:08:50.848Z,68.17
2023-03-17T04:09:50.820Z,66.60
2023-03-17T04:10:50.817Z,67.96
2023-03-17T04:11:50.801Z,68.38
2023-03-17T04:12:50.778Z,68.13
2023-03-17T04:13:50.782Z,66.57
2023-03-17T04:14:50.780Z,66.68
2023-03-17T04:15:50.823Z,66.36
2023-03-17T04:16:50.813Z,66.47
2023-03-17T04:17:50.727Z,67.10
2023-03-17T04:18:50.777Z,66.05
2023-03-17T04:19:50.711Z,66.68
2023-03-17T04:20:50.722Z,66.99
2023-03-17T04:21:52.345Z,67.51
2023-03-17T04:22:50.666Z,66.26
2023-03-17T04:23:50.668Z,66.47
2023-03-17T04:24:50.639Z,65.33
2023-03-17T04:25:50.672Z,65.19
2023-03-17T04:26:50.635Z,65.40
2023-03-17T04:27:50.613Z,65.50
2023-03-17T04:28:50.617Z,66.33
2023-03-17T04:29:50.591Z,66.54
2023-03-17T04:30:50.608Z,66.26
2023-03-17T04:31:50.611Z,67.10
2023-03-17T04:32:50.617Z,68.13
2023-03-17T04:33:50.579Z,68.13
2023-03-17T04:34:50.553Z,66.57
2023-03-17T04:35:50.563Z,65.95
2023-03-17T04:36:50.524Z,66.68
2023-03-17T04:37:50.511Z,65.95
2023-03-17T04:38:50.481Z,66.57
2023-03-17T04:39:50.476Z,65.74
2023-03-17T04:40:50.507Z,65.33
2023-03-17T04:41:50.460Z,65.53
2023-03-17T04:42:50.461Z,65.53
2023-03-17T04:43:50.485Z,65.74
2023-03-17T04:44:50.417Z,65.64
2023-03-17T04:45:50.514Z,65.22
2023-03-17T04:46:50.420Z,65.81
2023-03-17T04:47:50.414Z,66.16
2023-03-17T04:48:50.400Z,66.68
2023-03-17T04:49:50.378Z,65.11
2023-03-17T04:50:50.374Z,65.33
2023-03-17T04:51:50.343Z,64.67
2023-03-17T04:52:50.327Z,64.67
2023-03-17T04:53:50.331Z,65.09
2023-03-17T04:54:50.325Z,64.67
2023-03-17T04:55:50.316Z,65.61
2023-03-17T04:56:50.291Z,64.98
2023-03-17T04:57:50.275Z,65.71
2023-03-17T04:58:50.260Z,64.67
2023-03-17T04:59:50.301Z,64.56
2023-03-17T05:00:50.271Z,64.46
2023-03-17T05:01:50.394Z,64.64
2023-03-17T05:02:50.242Z,65.06
2023-03-17T05:03:50.213Z,64.98
2023-03-17T05:04:50.196Z,64.98
2023-03-17T05:05:50.204Z,64.98
2023-03-17T05:06:50.214Z,65.40
2023-03-17T05:07:50.170Z,65.09
2023-03-17T05:08:50.147Z,65.30
2023-03-17T05:09:50.143Z,65.71
2023-03-17T05:10:50.144Z,65.71
2023-03-17T05:11:50.128Z,66.33
2023-03-17T05:12:50.138Z,66.23
2023-03-17T05:13:50.118Z,65.43
2023-03-17T05:14:50.088Z,65.61
2023-03-17T05:15:50.095Z,65.61
2023-03-17T05:16:50.158Z,65.53
2023-03-17T05:17:50.064Z,65.40
2023-03-17T05:18:50.064Z,65.30
2023-03-17T05:19:50.043Z,65.81
2023-03-17T05:20:50.018Z,66.68
2023-03-17T05:21:50.030Z,66.36
2023-03-17T05:22:50.011Z,65.74
2023-03-17T05:23:50.006Z,66.47
2023-03-17T05:24:49.993Z,66.78
2023-03-17T05:25:49.970Z,67.20
2023-03-17T05:26:49.948Z,67.10
2023-03-17T05:27:49.942Z,66.16
2023-03-17T05:28:49.941Z,67.20
2023-03-17T05:29:49.918Z,67.61
2023-03-17T05:30:49.943Z,67.10
2023-03-17T05:31:49.900Z,66.47
2023-03-17T05:32:49.918Z,67.10
2023-03-17T05:33:49.899Z,66.36
2023-03-17T05:34:49.921Z,66.36
2023-03-17T05:35:49.873Z,66.99
2023-03-17T05:36:49.851Z,66.57
2023-03-17T05:37:49.834Z,66.36
2023-03-17T05:38:49.831Z,66.89
2023-03-17T05:39:49.815Z,66.16
2023-03-17T05:40:49.790Z,66.16
2023-03-17T05:41:49.790Z,65.84
2023-03-17T05:42:49.782Z,65.53
2023-03-17T05:43:49.785Z,65.50
2023-03-17T05:44:49.744Z,65.81
2023-03-17T05:45:49.801Z,65.64
2023-03-17T05:46:49.752Z,65.30
2023-03-17T05:47:49.716Z,65.50
2023-03-17T05:48:49.714Z,66.36
2023-03-17T05:49:49.698Z,66.05
2023-03-17T05:50:49.705Z,65.84
2023-03-17T05:51:49.702Z,67.20
2023-03-17T05:52:49.653Z,66.47
2023-03-17T05:53:49.652Z,66.47
2023-03-17T05:54:49.654Z,66.36
2023-03-17T05:55:49.632Z,65.64
2023-03-17T05:56:49.633Z,65.84
2023-03-17T05:57:49.608Z,65.84
2023-03-17T05:58:49.596Z,65.84
2023-03-17T05:59:49.588Z,65.64
2023-03-17T06:00:49.606Z,65.71
2023-03-17T06:01:49.584Z,65.50
2023-03-17T06:02:49.548Z,65.40
2023-03-17T06:03:49.636Z,65.81
2023-03-17T06:04:49.524Z,66.68
2023-03-17T06:05:49.544Z,66.57
2023-03-17T06:06:49.523Z,66.26
2023-03-17T06:07:54.960Z,66.47
2023-03-17T06:08:50.478Z,66.36
2023-03-17T06:09:49.498Z,66.26
2023-03-17T06:10:49.479Z,66.26
2023-03-17T06:11:49.455Z,66.47
2023-03-17T06:12:49.466Z,66.26
2023-03-17T06:13:49.450Z,65.92
2023-03-17T06:14:49.418Z,65.74
2023-03-17T06:15:49.490Z,65.81
2023-03-17T06:16:49.400Z,66.23
2023-03-17T06:17:49.398Z,66.65
2023-03-17T06:18:49.384Z,66.75
2023-03-17T06:19:49.574Z,66.33
2023-03-17T06:20:49.375Z,67.07
2023-03-17T06:21:49.364Z,66.33
2023-03-17T06:23:03.400Z,66.44
2023-03-17T06:23:50.338Z,66.20
2023-03-17T06:24:49.324Z,65.99
2023-03-17T06:25:49.310Z,65.78
2023-03-17T06:26:49.292Z,65.78
2023-03-17T06:27:49.271Z,66.09
2023-03-17T06:28:49.276Z,65.89
2023-03-17T06:29:49.245Z,66.30
2023-03-17T06:30:49.331Z,66.83
2023-03-17T06:31:49.225Z,65.26
2023-03-17T06:32:49.290Z,65.58
2023-03-17T06:33:49.224Z,64.53
2023-03-17T06:34:49.225Z,65.16
2023-03-17T06:35:49.265Z,65.03
2023-03-17T06:36:49.189Z,64.61
2023-03-17T06:37:49.202Z,65.13
2023-03-17T06:38:49.188Z,65.13
2023-03-17T06:39:49.156Z,65.96
2023-03-17T06:40:49.141Z,65.44
2023-03-17T06:41:49.113Z,65.13
2023-03-17T06:42:49.149Z,65.13
2023-03-17T06:43:49.092Z,65.86
2023-03-17T06:44:49.138Z,66.38
2023-03-17T06:45:49.116Z,64.58
2023-03-17T06:46:49.106Z,65.20
2023-03-17T06:47:49.048Z,64.48
2023-03-17T06:48:49.056Z,64.40
2023-03-17T06:49:49.024Z,65.20
2023-03-17T06:50:49.058Z,64.48
2023-03-17T06:51:49.023Z,65.00
2023-03-17T06:52:49.026Z,64.58
2023-03-17T06:53:49.019Z,64.58
2023-03-17T06:54:48.997Z,64.65
2023-03-17T06:55:48.973Z,64.24
2023-03-17T06:56:48.976Z,65.28
2023-03-17T06:57:51.105Z,65.69
2023-03-17T06:58:48.927Z,64.62
2023-03-17T06:59:48.909Z,63.59
2023-03-17T07:00:49.070Z,64.31
2023-03-17T07:01:48.982Z,64.42
2023-03-17T07:02:48.892Z,63.38
2023-03-17T07:03:48.874Z,63.56
2023-03-17T07:04:48.939Z,63.04
2023-03-17T07:05:48.871Z,63.87
2023-03-17T07:06:48.855Z,62.62
2023-03-17T07:07:48.821Z,60.96
2023-03-17T07:08:48.812Z,61.58
2023-03-17T07:09:48.838Z,62.31
2023-03-17T07:10:48.818Z,62.52
2023-03-17T07:11:48.797Z,62.21
2023-03-17T07:12:48.800Z,63.04
2023-03-17T07:13:48.756Z,62.00
2023-03-17T07:14:48.745Z,62.21
2023-03-17T07:15:48.853Z,61.90
2023-03-17T07:16:48.800Z,61.90
2023-03-17T07:17:48.766Z,61.90
2023-03-17T07:18:48.749Z,62.00
2023-03-17T07:19:48.688Z,62.21
2023-03-17T07:20:48.697Z,62.00
2023-03-17T07:21:48.701Z,61.58
2023-03-17T07:22:48.687Z,61.17
2023-03-17T07:23:48.638Z,62.62
2023-03-17T07:24:48.678Z,62.31
2023-03-17T07:25:48.617Z,61.79
2023-03-17T07:26:48.635Z,60.86
2023-03-17T07:27:48.602Z,60.75
2023-03-17T07:28:48.617Z,60.72
2023-03-17T07:29:48.595Z,61.35
2023-03-17T07:30:48.598Z,61.17
2023-03-17T07:31:48.709Z,61.35
2023-03-17T07:32:48.649Z,61.87
2023-03-17T07:33:48.547Z,61.45
2023-03-17T07:34:48.535Z,60.93
2023-03-17T07:35:48.645Z,60.93
2023-03-17T07:36:48.561Z,61.35
2023-03-17T07:37:48.488Z,61.87
2023-03-17T07:38:48.500Z,61.04
2023-03-17T07:39:48.459Z,61.84
2023-03-17T07:40:48.454Z,62.05
2023-03-17T07:41:48.441Z,61.32
2023-03-17T07:42:48.452Z,61.01
2023-03-17T07:43:48.437Z,62.26
2023-03-17T07:44:48.422Z,62.26
2023-03-17T07:45:48.496Z,61.53
2023-03-17T07:46:48.389Z,60.25
2023-03-17T07:47:48.414Z,60.67
2023-03-17T07:48:48.386Z,60.36
2023-03-17T07:49:48.372Z,60.57
2023-03-17T07:50:48.390Z,60.25
2023-03-17T07:51:48.350Z,60.33
2023-03-17T07:52:48.330Z,59.40
2023-03-17T07:53:48.314Z,58.67
2023-03-17T07:54:48.318Z,59.68
2023-03-17T07:55:48.318Z,60.12
2023-03-17T07:56:48.284Z,60.82
2023-03-17T07:57:48.351Z,58.95
2023-03-17T07:58:55.957Z,58.85
2023-03-17T07:59:48.312Z,59.37
2023-03-17T08:00:48.247Z,60.30
2023-03-17T08:01:48.314Z,59.68
2023-03-17T08:02:59.612Z,59.58
2023-03-17T08:03:49.223Z,58.20
2023-03-17T08:04:48.206Z,58.93
2023-03-17T08:05:48.177Z,58.83
2023-03-17T08:06:48.190Z,59.21
2023-03-17T08:07:48.408Z,57.76
2023-03-17T08:08:48.241Z,57.45
2023-03-17T08:09:48.324Z,57.04
2023-03-17T08:10:48.154Z,57.24
2023-03-17T08:11:48.697Z,56.60
2023-03-17T08:12:48.130Z,57.63
2023-03-17T08:13:48.101Z,57.42
2023-03-17T08:14:48.095Z,58.54
2023-03-17T08:15:48.076Z,57.40
2023-03-17T08:16:48.247Z,58.54
2023-03-17T08:17:48.042Z,58.02
2023-03-17T08:18:48.044Z,56.96
2023-03-17T08:19:48.028Z,56.44
2023-03-17T08:20:48.032Z,56.54
2023-03-17T08:21:47.993Z,58.20
2023-03-17T08:22:48.022Z,57.24
2023-03-17T08:23:47.994Z,56.83
2023-03-17T08:24:48.011Z,56.29
2023-03-17T08:25:48.036Z,57.11
2023-03-17T08:26:47.958Z,56.60
2023-03-17T08:27:47.931Z,55.26
2023-03-17T08:28:47.963Z,55.46
2023-03-17T08:29:47.896Z,55.15
2023-03-17T08:30:50.340Z,56.49
2023-03-17T08:31:48.006Z,57.42
2023-03-17T08:32:47.975Z,58.15
2023-03-17T08:33:47.857Z,56.88
2023-03-17T08:34:47.880Z,55.54
2023-03-17T08:35:47.881Z,55.54
2023-03-17T08:36:47.845Z,53.99
2023-03-17T08:37:47.813Z,54.38
2023-03-17T08:38:47.833Z,54.38
2023-03-17T08:39:47.787Z,54.48
2023-03-17T08:40:47.789Z,55.00
2023-03-17T08:41:47.781Z,53.55
2023-03-17T08:42:47.779Z,53.66
2023-03-17T08:43:47.773Z,55.10
2023-03-17T08:44:48.700Z,56.75
2023-03-17T08:45:47.769Z,55.00
2023-03-17T08:46:47.775Z,53.96
2023-03-17T08:47:47.744Z,54.17
2023-03-17T08:48:47.732Z,55.00
2023-03-17T08:49:47.719Z,54.58
2023-03-17T08:50:47.677Z,55.62
2023-03-17T08:51:47.670Z,56.96
2023-03-17T08:52:47.708Z,54.17
2023-03-17T08:53:47.639Z,54.38
2023-03-17T08:54:47.667Z,55.00
2023-03-17T08:55:47.644Z,54.14
2023-03-17T08:56:47.619Z,54.56
2023-03-17T08:57:47.600Z,53.32
2023-03-17T08:58:47.593Z,52.70
2023-03-17T08:59:47.578Z,53.71
2023-03-17T09:00:47.575Z,55.15
2023-03-17T09:01:47.636Z,55.05
2023-03-17T09:02:47.667Z,53.09
2023-03-17T09:03:47.524Z,53.53
2023-03-17T09:04:47.543Z,54.53
2023-03-17T09:05:47.496Z,56.49
2023-03-17T09:07:02.367Z,54.53
2023-03-17T09:07:48.553Z,54.22
2023-03-17T09:08:47.555Z,51.03
2023-03-17T09:09:47.459Z,52.86
2023-03-17T09:10:47.444Z,53.89
2023-03-17T09:11:47.428Z,54.71
2023-03-17T09:12:47.450Z,52.45
2023-03-17T09:13:47.426Z,52.45
2023-03-17T09:14:49.189Z,52.66
2023-03-17T09:15:47.428Z,53.06
2023-03-17T09:16:47.380Z,53.86
2023-03-17T09:17:47.477Z,53.04
2023-03-17T09:18:47.377Z,53.25
2023-03-17T09:19:47.335Z,52.73
2023-03-17T09:20:47.348Z,52.61
2023-03-17T09:21:47.340Z,53.33
2023-03-17T09:22:47.306Z,52.29
2023-03-17T09:23:47.296Z,51.37
2023-03-17T09:24:47.324Z,52.81
2023-03-17T09:25:47.272Z,52.50
2023-03-17T09:26:47.282Z,52.50
2023-03-17T09:27:47.244Z,51.16
2023-03-17T09:28:47.236Z,50.96
2023-03-17T09:29:47.300Z,51.16
2023-03-17T09:30:47.303Z,51.16
2023-03-17T09:31:47.232Z,52.50
2023-03-17T09:32:47.248Z,52.29
2023-03-17T09:33:47.181Z,51.37
2023-03-17T09:34:48.160Z,51.47
2023-03-17T09:35:47.208Z,51.16
2023-03-17T09:36:47.163Z,52.19
2023-03-17T09:37:47.175Z,52.61
2023-03-17T09:38:47.142Z,53.84
2023-03-17T09:39:47.110Z,52.81
2023-03-17T09:40:47.106Z,55.18
2023-03-17T09:41:47.102Z,54.25
2023-03-17T09:42:47.096Z,54.46
2023-03-17T09:43:47.076Z,53.94
2023-03-17T09:44:47.079Z,52.50
2023-03-17T09:45:47.041Z,51.70
2023-03-17T09:46:47.234Z,50.54
2023-03-17T09:47:47.054Z,50.75
2023-03-17T09:48:47.022Z,50.96
2023-03-17T09:49:47.009Z,49.52
2023-03-17T09:50:47.020Z,49.10
2023-03-17T09:51:47.000Z,49.41
2023-03-17T09:52:47.609Z,49.93
2023-03-17T09:53:46.951Z,48.59
2023-03-17T09:54:46.955Z,51.06
2023-03-17T09:55:46.929Z,51.68
2023-03-17T09:56:46.951Z,51.57
2023-03-17T09:57:46.947Z,49.31
2023-03-17T09:58:47.687Z,52.19
2023-03-17T09:59:46.891Z,52.37
2023-03-17T10:00:46.909Z,52.78
2023-03-17T10:01:46.964Z,51.65
2023-03-17T10:02:46.857Z,47.64
2023-03-17T10:03:46.836Z,47.20
2023-03-17T10:04:46.867Z,48.98
2023-03-17T10:05:46.942Z,48.36
2023-03-17T10:06:46.843Z,48.16
2023-03-17T10:07:46.792Z,49.37
2023-03-17T10:08:46.787Z,48.77
2023-03-17T10:09:46.778Z,48.88
2023-03-17T10:10:46.800Z,51.42
2023-03-17T10:11:46.746Z,48.75
2023-03-17T10:12:46.760Z,49.06
2023-03-17T10:13:46.725Z,48.96
2023-03-17T10:14:46.727Z,50.06
2023-03-17T10:15:46.756Z,52.12
2023-03-17T10:16:46.697Z,50.99
2023-03-17T10:17:46.677Z,48.32
2023-03-17T10:18:46.692Z,49.14
2023-03-17T10:19:46.654Z,51.84
2023-03-17T10:20:46.678Z,52.53
2023-03-17T10:21:46.711Z,51.40
2023-03-17T10:22:46.656Z,51.50
2023-03-17T10:23:46.610Z,51.09
2023-03-17T10:24:46.616Z,51.09
2023-03-17T10:25:46.626Z,52.20
2023-03-17T10:26:46.585Z,50.56
2023-03-17T10:27:46.585Z,50.96
2023-03-17T10:28:46.577Z,50.66
2023-03-17T10:29:48.463Z,50.53
2023-03-17T10:30:46.574Z,50.53
2023-03-17T10:31:46.589Z,52.28
2023-03-17T10:32:46.602Z,52.59
2023-03-17T10:33:46.499Z,49.48
2023-03-17T10:34:46.492Z,46.53
2023-03-17T10:35:46.522Z,47.96
2023-03-17T10:36:46.483Z,48.47
2023-03-17T10:37:46.462Z,47.42
2023-03-17T10:38:46.457Z,49.38
2023-03-17T10:39:46.439Z,47.94
2023-03-17T10:40:46.437Z,48.86
2023-03-17T10:41:46.414Z,52.25
2023-03-17T10:42:46.415Z,49.48
2023-03-17T10:43:46.414Z,50.48
2023-03-17T10:44:46.375Z,48.54
2023-03-17T10:45:46.383Z,47.30
2023-03-17T10:46:46.467Z,49.26
2023-03-17T10:47:46.349Z,47.30
2023-03-17T10:48:46.366Z,45.87
2023-03-17T10:49:46.332Z,48.33
2023-03-17T10:50:48.511Z,48.33
2023-03-17T10:51:46.300Z,50.59
2023-03-17T10:52:46.298Z,50.05
2023-03-17T10:53:46.298Z,50.56
2023-03-17T10:54:46.295Z,51.39
2023-03-17T10:55:46.300Z,50.36
2023-03-17T10:56:46.277Z,50.54
2023-03-17T10:57:46.255Z,47.26
2023-03-17T10:58:46.234Z,48.69
2023-03-17T10:59:46.214Z,48.18
2023-03-17T11:00:46.274Z,43.98
2023-03-17T11:01:46.193Z,44.80
2023-03-17T11:02:46.233Z,46.95
2023-03-17T11:03:46.261Z,46.54
2023-03-17T11:04:46.150Z,44.70
2023-03-17T11:05:46.141Z,46.03
2023-03-17T11:06:46.151Z,46.64
2023-03-17T11:07:46.130Z,45.62
2023-03-17T11:08:46.124Z,46.52
2023-03-17T11:09:46.130Z,47.46
2023-03-17T11:10:46.127Z,47.85
2023-03-17T11:11:46.093Z,44.26
2023-03-17T11:12:46.077Z,45.29
2023-03-17T11:13:46.057Z,45.09
2023-03-17T11:14:46.038Z,45.09
2023-03-17T11:15:46.056Z,44.98
2023-03-17T11:16:46.097Z,45.60
2023-03-17T11:17:46.036Z,43.24
2023-03-17T11:18:46.008Z,44.59
2023-03-17T11:19:46.027Z,46.13
2023-03-17T11:20:45.998Z,44.29
2023-03-17T11:21:46.170Z,44.70
2023-03-17T11:22:45.971Z,45.72
2023-03-17T11:23:45.970Z,44.88
2023-03-17T11:24:45.939Z,46.75
2023-03-17T11:25:45.968Z,46.52
2023-03-17T11:26:45.929Z,44.57
2023-03-17T11:27:45.920Z,45.39
2023-03-17T11:28:45.932Z,46.52
2023-03-17T11:29:45.879Z,46.21
2023-03-17T11:30:45.861Z,47.01
2023-03-17T11:31:45.917Z,43.94
2023-03-17T11:32:45.898Z,45.89
2023-03-17T11:33:45.849Z,44.76
2023-03-17T11:34:45.823Z,44.86
2023-03-17T11:35:45.856Z,46.19
2023-03-17T11:36:45.794Z,45.15
2023-03-17T11:37:45.817Z,47.31
2023-03-17T11:38:45.773Z,47.81
2023-03-17T11:39:45.771Z,49.14
2023-03-17T11:40:45.750Z,48.60
2023-03-17T11:41:45.746Z,45.76
2023-03-17T11:42:45.769Z,47.19
2023-03-17T11:43:45.728Z,47.19
2023-03-17T11:44:45.707Z,47.42
2023-03-17T11:45:45.720Z,48.42
2023-03-17T11:46:45.685Z,46.07
2023-03-17T11:47:45.703Z,47.19
2023-03-17T11:48:45.673Z,47.30
2023-03-17T11:49:45.686Z,46.17
2023-03-17T11:50:45.636Z,47.09
2023-03-17T11:51:45.629Z,48.40
2023-03-17T11:52:45.632Z,46.86
2023-03-17T11:53:45.606Z,45.51
2023-03-17T11:54:45.589Z,44.79
2023-03-17T11:55:45.621Z,45.92
2023-03-17T11:56:45.586Z,46.53
2023-03-17T11:57:45.564Z,47.15
2023-03-17T11:58:45.567Z,46.82
2023-03-17T11:59:45.533Z,46.80
2023-03-17T12:00:54.373Z,46.80
2023-03-17T12:01:45.525Z,48.51
2023-03-17T12:02:45.494Z,47.39
2023-03-17T12:03:45.805Z,46.88
2023-03-17T12:04:45.610Z,47.19
2023-03-17T12:05:45.465Z,48.90
2023-03-17T12:06:56.798Z,47.27
2023-03-17T12:07:45.444Z,46.33
2023-03-17T12:08:53.263Z,46.63
2023-03-17T12:09:45.442Z,45.59
2023-03-17T12:10:45.424Z,46.79
2023-03-17T12:11:45.429Z,44.65
2023-03-17T12:12:45.383Z,43.02
2023-03-17T12:15:01.189Z,44.02
2023-03-17T12:16:01.129Z,43.00
2023-03-17T12:17:08.225Z,44.02
2023-03-17T12:18:01.025Z,43.30
2023-03-17T12:19:01.015Z,45.45
2023-03-17T12:20:01.004Z,44.43
2023-03-17T12:21:00.980Z,44.02
2023-03-17T12:22:00.970Z,44.81
2023-03-17T12:23:01.011Z,43.18
2023-03-17T12:24:01.004Z,40.35
2023-03-17T12:25:01.079Z,41.51
2023-03-17T12:26:00.951Z,43.14
2023-03-17T12:27:00.930Z,44.24
2023-03-17T12:28:00.922Z,41.80
2023-03-17T12:29:00.922Z,41.61
2023-03-17T12:30:00.928Z,43.47
2023-03-17T12:31:00.930Z,43.96
2023-03-17T12:32:00.858Z,42.22
2023-03-17T12:33:00.886Z,41.42
2023-03-17T12:34:00.847Z,44.10
2023-03-17T12:35:00.926Z,44.08
2023-03-17T12:36:00.817Z,44.18
2023-03-17T12:37:00.794Z,44.28
2023-03-17T12:38:00.806Z,44.51
2023-03-17T12:39:00.791Z,44.73
2023-03-17T12:40:00.842Z,44.41
2023-03-17T12:41:00.982Z,44.12
2023-03-17T12:42:00.744Z,43.71
2023-03-17T12:43:00.721Z,45.45
2023-03-17T12:44:00.728Z,46.14
2023-03-17T12:45:00.718Z,43.90
2023-03-17T12:46:00.740Z,46.86
2023-03-17T12:47:00.694Z,44.59
2023-03-17T12:48:00.669Z,45.61
2023-03-17T12:49:00.652Z,44.78
2023-03-17T12:50:00.673Z,42.04
2023-03-17T12:51:00.650Z,40.32
2023-03-17T12:52:00.639Z,41.26
2023-03-17T12:53:00.620Z,45.14
2023-03-17T12:54:00.600Z,44.53